Flight Track Log - Related Links

Times and Time Zones

All times are in EDT time to prevent confusion due to time zone crossing. See the UAL3817 flight status page for this flight to view local times or setup timezone preferences in your user account.

Time Position Orientation Groundspeed Altitude Reporting Facility
EDT Latitude Longitude Course Direction KTS MPH feet Rate Location/Type
Fri 06:06:56 AM 42.9500 -71.4333 276° West 153 176 1,200  Level KA90
Fri 06:07:38 AM 42.9833 -71.4500 340° North 161 185 2,600 2,056 Climbing KA90
Fri 06:08:44 AM 43.0136 -71.5172 302° West 183 211 4,900 2,095 Climbing Boston Center
Fri 06:09:44 AM 43.0328 -71.5936 289° West 219 252 7,000 2,400 Climbing Boston Center
Fri 06:10:00 AM 42.9706 -71.8318 280° West  Level FlightAware Approximate
Fri 06:10:44 AM 43.0628 -71.6869 294° West 246 283 9,700  Level Boston Center
Fri 06:11:00 AM 42.9832 -71.9324 280° West  Level FlightAware Approximate
Fri 06:11:44 AM 43.0633 -71.7808 270° West 264 304 10,600  Level Boston Center
Fri 06:12:00 AM 43.0036 -72.0292 276° West  Level FlightAware Approximate
Fri 06:12:44 AM 43.0453 -71.9172 260° West 317 365 11,400  Level Boston Center
Fri 06:13:44 AM 43.0269 -72.0283 257° West 341 392 12,500 1,250 Climbing Boston Center
Fri 06:14:44 AM 43.0067 -72.1731 259° West 357 411 13,900 1,300 Climbing Boston Center
Fri 06:15:44 AM 42.9881 -72.2897 258° West 357 411 15,100 1,050 Climbing Boston Center
Fri 06:16:44 AM 42.9694 -72.4175 259° West 357 411 16,000 450 Climbing Boston Center
Fri 06:17:44 AM 42.9483 -72.5536 258° West 357 411 16,000 50 Level Boston Center
Fri 06:18:44 AM 42.9275 -72.6867 258° West 357 411 16,100 50 Climbing Boston Center
Fri 06:19:44 AM 42.9083 -72.8172 259° West 357 411 16,100  Level Boston Center
Fri 06:20:44 AM 42.8869 -72.9531 258° West 357 411 16,100  Level Boston Center
Fri 06:21:44 AM 42.8611 -73.1028 257° West 362 417 16,100  Level Boston Center
Fri 06:22:44 AM 42.8436 -73.2189 258° West 357 411 16,100  Level Boston Center
Fri 06:23:44 AM 42.8219 -73.3544 258° West 351 404 16,100 50 Level Boston Center
Fri 06:24:44 AM 42.8022 -73.4700 257° West 351 404 16,200  Climbing Boston Center
Fri 06:25:44 AM 42.7800 -73.6083 258° West 351 404 16,100 -100 Descending Boston Center
Fri 06:26:44 AM 42.7619 -73.7269 258° West 356 410 16,000 -50 Descending Boston Center
Fri 06:27:44 AM 42.7214 -73.8164 238° Southwest 356 410 16,000  Level Boston Center
Fri 06:28:44 AM 42.5872 -73.8756 198° South 350 403 16,000  Level Boston Center
Fri 06:29:44 AM 42.4886 -73.9183 198° South 395 455 16,000  Level Boston Center
Fri 06:30:44 AM 42.3714 -73.9717 199° South 412 474 16,000  Level Boston Center
Fri 06:31:44 AM 42.2706 -74.0142 197° South 412 474 16,000 50 Level Boston Center
Fri 06:32:44 AM 42.1553 -74.0700 200° South 406 467 16,100  Climbing Boston Center
Fri 06:33:44 AM 42.0461 -74.1175 198° South 412 474 16,000 -550 Descending Boston Center
Fri 06:34:44 AM 41.9414 -74.1622 198° South 406 467 15,000 -1,350 Descending Boston Center
Fri 06:35:44 AM 41.8386 -74.2067 198° South 406 467 13,300 -1,900 Descending Boston Center
Fri 06:36:44 AM 41.7378 -74.2511 198° South 391 450 11,200 -1,500 Descending Boston Center
Fri 06:37:44 AM 41.6706 -74.2800 198° South 363 418 10,300 -1,400 Descending Boston Center
Fri 06:38:44 AM 41.5783 -74.3189 198° South 297 342 8,400 -1,500 Descending Boston Center
Fri 06:39:44 AM 41.5131 -74.3475 198° South 285 328 7,300 -441 Descending Boston Center
Fri 06:41:41 AM 41.3500 -74.4167 198° South 280 322 7,100 -98 Descending New York TRACON
Fri 06:42:47 AM 41.2667 -74.4500 197° South 291 335 7,000 -48 Descending New York TRACON
Fri 06:43:47 AM 41.2000 -74.4833 201° Southwest 287 330 7,000 -53 Level New York TRACON
Fri 06:44:41 AM 41.1333 -74.5000 191° South 290 334 6,900 -579 Descending New York TRACON
Fri 06:45:41 AM 41.0500 -74.5167 189° South 296 341 5,900 -900 Descending New York TRACON
Fri 06:46:41 AM 40.9667 -74.5000 171° South 292 336 5,100 -450 Descending New York TRACON
Fri 06:47:41 AM 40.8833 -74.4833 171° South 288 331 5,000 -53 Descending New York TRACON
Fri 06:48:35 AM 40.8167 -74.4500 159° South 286 329 5,000 -444 Level New York TRACON
Fri 06:49:29 AM 40.7500 -74.4333 169° South 289 333 4,200 -947 Descending New York TRACON
Fri 06:50:29 AM 40.6667 -74.4000 163° South 282 325 3,200 -600 Descending New York TRACON
Fri 06:51:29 AM 40.6000 -74.3833 169° South 277 319 3,000 -105 Descending New York TRACON
Fri 06:52:23 AM 40.5333 -74.3667 169° South 224 258 3,000  Level New York TRACON
Fri 06:53:23 AM 40.4833 -74.3167 143° Southeast 211 243 3,000  Level New York TRACON
Fri 06:54:23 AM 40.5000 -74.2833 57° Northeast 156 180 3,000  Level New York TRACON
Fri 06:55:17 AM 40.5500 -74.2667 14° North 148 170 3,000  Level New York TRACON

Login

Don't have an account? Register now (free) for customized features, flight alerts, and more!